Time;durP1;ratioP1;P1;durP2;ratioP2;P2;SDS_P1;SDS_P2;PMS_P1;PMS_P2;Temp;Humidity;BMP_temperature;BMP_pressure;BME280_temperature;BME280_humidity;BME280_pressure;Samples;Min_cycle;Max_cycle;Signal;HPM_P1;HPM_P2
2021/07/27 00:00:00;;;;;;;18.83;6.77;;;;;;;24.67;49.06;100273.97;3368267;29;20521;-72
2021/07/27 00:01:42;;;;;;;19.33;6.68;;;;;;;24.64;48.96;100271.78;3367624;29;20574;-70
2021/07/27 00:03:25;;;;;;;17.25;7.60;;;;;;;24.66;48.80;100264.16;3375144;29;20044;-72
2021/07/27 00:05:07;;;;;;;14.38;7.15;;;;;;;24.64;49.11;100268.25;3375331;29;20044;-71
2021/07/27 00:06:47;;;;;;;15.13;6.72;;;;;;;24.63;48.97;100264.72;3375197;29;20067;-71
2021/07/27 00:08:28;;;;;;;15.60;6.43;;;;;;;24.64;49.03;100271.78;3375325;29;20051;-70
2021/07/27 00:10:09;;;;;;;19.40;6.37;;;;;;;24.62;49.11;100273.16;3375304;29;20536;-72
2021/07/27 00:11:50;;;;;;;19.42;6.25;;;;;;;24.62;49.06;100270.41;3375880;29;20500;-71
2021/07/27 00:13:31;;;;;;;19.40;6.83;;;;;;;24.61;48.57;100264.16;3363106;29;20041;-68
2021/07/27 00:15:12;;;;;;;20.42;6.80;;;;;;;24.60;49.09;100267.97;3372446;29;20052;-71
2021/07/27 00:16:53;;;;;;;12.37;6.03;;;;;;;24.60;48.97;100270.69;3377605;29;20523;-70
2021/07/27 00:18:34;;;;;;;16.53;6.57;;;;;;;24.57;48.67;100268.50;3377862;29;20048;-72
2021/07/27 00:20:15;;;;;;;12.30;5.78;;;;;;;24.57;48.58;100276.69;3364134;29;20041;-70
2021/07/27 00:21:55;;;;;;;19.15;6.43;;;;;;;24.57;48.79;100265.78;3373114;29;20405;-70
2021/07/27 00:23:38;;;;;;;15.50;6.43;;;;;;;24.55;48.71;100262.50;3375216;29;20040;-70
2021/07/27 00:25:19;;;;;;;15.30;6.18;;;;;;;24.53;48.80;100270.97;3361916;29;20045;-72
2021/07/27 00:27:00;;;;;;;14.80;6.13;;;;;;;24.52;48.91;100263.88;3373127;29;20427;-70
2021/07/27 00:28:41;;;;;;;;;;;;;;;24.55;48.40;100268.81;3376131;29;20044;-70
2021/07/27 00:30:22;;;;;;;17.90;6.15;;;;;;;24.48;48.59;100262.81;3361844;29;20546;-72
2021/07/27 00:32:03;;;;;;;16.40;6.73;;;;;;;24.48;48.86;100270.97;3372812;29;20049;-71
2021/07/27 00:33:45;;;;;;;17.67;6.78;;;;;;;24.48;48.66;100267.44;3376361;29;20049;-71
2021/07/27 00:35:27;;;;;;;19.25;7.72;;;;;;;24.47;48.93;100273.97;3362955;29;20041;-71
2021/07/27 00:37:16;;;;;;;12.32;6.65;;;;;;;24.46;48.48;100269.63;3375144;29;20044;-71
2021/07/27 00:38:57;;;;;;;15.40;7.05;;;;;;;24.43;48.59;100270.13;3377657;29;20548;-73
2021/07/27 00:40:41;;;;;;;13.90;7.37;;;;;;;24.43;48.28;100270.13;3378345;29;20044;-73
2021/07/27 00:42:22;;;;;;;17.77;7.03;;;;;;;24.41;48.71;100267.66;3378428;29;20052;-72
2021/07/27 00:44:02;;;;;;;20.43;8.37;;;;;;;24.41;48.49;100273.13;3378280;29;20092;-69
2021/07/27 00:45:43;;;;;;;15.13;7.83;;;;;;;24.39;48.61;100264.38;3378082;29;20577;-70
2021/07/27 00:47:24;;;;;;;14.90;6.73;;;;;;;24.39;48.91;100264.38;3377774;29;20041;-69
2021/07/27 00:49:05;;;;;;;18.57;6.87;;;;;;;24.39;48.62;100264.38;3377482;29;20052;-71
2021/07/27 00:50:47;;;;;;;17.43;6.83;;;;;;;24.37;49.08;100267.41;3378034;29;20120;-71
2021/07/27 00:52:28;;;;;;;;;;;;;;;24.41;48.60;100267.66;3378339;29;20053;-71
2021/07/27 00:54:08;;;;;;;13.68;6.68;;;;;;;24.37;48.79;100269.31;3363993;29;20011;-71
2021/07/27 00:55:51;;;;;;;16.57;7.23;;;;;;;24.35;49.00;100264.13;3375087;29;20048;-70
2021/07/27 00:57:32;;;;;;;20.05;7.93;;;;;;;24.33;48.79;100260.03;3377486;29;20139;-70
2021/07/27 00:59:12;;;;;;;22.70;8.03;;;;;;;24.31;48.99;100263.03;3377808;29;20087;-71
2021/07/27 01:00:53;;;;;;;21.20;7.83;;;;;;;24.29;49.14;100265.22;3364050;29;20530;-71
2021/07/27 01:02:34;;;;;;;20.47;8.03;;;;;;;24.28;48.83;100260.03;3375557;29;20464;-70
2021/07/27 01:04:14;;;;;;;21.87;7.33;;;;;;;24.27;49.13;100261.13;3377823;29;20377;-72
2021/07/27 01:05:55;;;;;;;18.73;8.20;;;;;;;24.25;49.30;100264.13;3378373;29;20051;-70
2021/07/27 01:07:40;;;;;;;21.13;7.70;;;;;;;24.22;49.06;100253.78;3378927;29;20092;-71
2021/07/27 01:09:20;;;;;;;19.35;7.63;;;;;;;24.23;49.43;100258.13;3379409;29;20048;-70
2021/07/27 01:11:01;;;;;;;19.83;7.00;;;;;;;24.23;49.24;100255.41;3377811;29;20535;-71
2021/07/27 01:12:42;;;;;;;25.27;8.13;;;;;;;24.19;49.41;100254.31;3377754;29;20068;-71
2021/07/27 01:14:23;;;;;;;22.90;7.85;;;;;;;24.22;49.27;100258.41;3377238;29;20044;-73
2021/07/27 01:16:07;;;;;;;33.00;8.13;;;;;;;24.18;49.37;100247.22;3377487;29;20132;-71
2021/07/27 01:17:48;;;;;;;15.50;7.25;;;;;;;24.19;49.46;100251.59;3377660;29;20053;-73
2021/07/27 01:37:34;;;;;;;19.45;7.30;;;;;;;24.10;50.38;100250.50;3377354;29;20079;-70
2021/07/27 01:39:27;;;;;;;20.35;7.53;;;;;;;24.08;50.58;100249.94;3377150;29;20139;-71
2021/07/27 01:42:53;;;;;;;19.98;7.43;;;;;;;24.07;50.24;100256.47;3376757;29;20424;-74
2021/07/27 01:44:44;;;;;;;24.73;8.10;;;;;;;24.06;50.48;100254.81;3376898;29;20048;-71
2021/07/27 01:46:25;;;;;;;22.10;8.40;;;;;;;24.03;50.57;100247.19;3376190;29;20040;-72
2021/07/27 01:48:06;;;;;;;22.80;7.70;;;;;;;23.97;50.04;100242.84;3376858;29;20077;-71
2021/07/27 01:49:48;;;;;;;21.73;7.47;;;;;;;24.00;50.24;100251.28;3363008;29;20474;-71
2021/07/27 01:51:31;;;;;;;26.85;8.63;;;;;;;23.98;50.11;100247.19;3374300;29;20131;-72
2021/07/27 01:53:16;;;;;;;27.50;9.15;;;;;;;23.93;50.48;100251.56;3377205;29;20065;-72
2021/07/27 01:54:57;;;;;;;19.83;7.32;;;;;;;23.90;50.59;100252.06;3376965;29;20432;-73
2021/07/27 01:56:37;;;;;;;23.03;7.43;;;;;;;23.91;50.62;100253.72;3363269;29;20041;-72
2021/07/27 01:58:18;;;;;;;18.87;8.17;;;;;;;23.91;50.32;100247.47;3374348;29;20452;-75
2021/07/27 02:00:04;;;;;;;24.37;8.47;;;;;;;23.92;50.85;100249.91;3377302;29;20611;-72
2021/07/27 02:01:47;;;;;;;24.65;9.05;;;;;;;23.90;50.54;100246.63;3376774;29;20131;-73
2021/07/27 02:03:27;;;;;;;20.03;8.57;;;;;;;23.89;50.65;100250.44;3377153;29;20555;-73
2021/07/27 02:05:09;;;;;;;21.57;9.00;;;;;;;23.91;50.75;100259.19;3377203;29;20416;-71
2021/07/27 02:06:49;;;;;;;19.58;7.63;;;;;;;23.91;50.80;100253.72;3376924;29;20108;-72
2021/07/27 02:08:30;;;;;;;21.93;8.17;;;;;;;23.91;50.81;100253.72;3376910;29;20087;-73
2021/07/27 02:10:14;;;;;;;17.27;7.60;;;;;;;23.90;50.64;100256.72;3363263;29;20060;-72
2021/07/27 02:11:59;;;;;;;22.17;8.77;;;;;;;23.89;50.91;100255.09;3374261;29;20047;-71
2021/07/27 02:13:52;;;;;;;30.42;8.68;;;;;;;23.83;51.25;100256.97;3376860;29;20356;-72
2021/07/27 02:15:42;;;;;;;20.20;8.27;;;;;;;23.81;51.73;100259.16;3376708;29;20469;-72
2021/07/27 02:17:22;;;;;;;20.48;7.70;;;;;;;23.82;51.43;100255.31;3362887;29;20041;-71
2021/07/27 02:19:04;;;;;;;31.43;8.63;;;;;;;23.84;51.61;100258.59;3374153;29;20118;-72
2021/07/27 02:20:48;;;;;;;21.95;8.25;;;;;;;23.87;51.28;100257.25;3376142;29;20124;-72
2021/07/27 02:22:33;;;;;;;25.13;8.07;;;;;;;23.88;51.69;100257.00;3376558;29;20103;-73
2021/07/27 02:24:15;;;;;;;22.10;8.55;;;;;;;23.91;51.26;100259.19;3377287;29;20045;-70
2021/07/27 02:25:55;;;;;;;26.40;8.55;;;;;;;23.94;51.51;100258.63;3376701;29;20117;-73
2021/07/27 02:27:36;;;;;;;27.27;8.60;;;;;;;23.97;51.50;100261.91;3376681;29;20048;-74
2021/07/27 02:29:17;;;;;;;33.27;9.90;;;;;;;23.99;51.30;100259.75;3376848;29;20048;-71
2021/07/27 02:31:01;;;;;;;24.73;8.68;;;;;;;24.03;51.56;100253.47;3362834;29;20493;-69
2021/07/27 02:32:45;;;;;;;26.30;8.73;;;;;;;24.05;51.73;100254.00;3359252;29;20057;-71
2021/07/27 02:34:31;;;;;;;24.73;8.50;;;;;;;24.07;51.64;100257.28;3367241;29;20429;-71
2021/07/27 02:36:12;;;;;;;18.80;8.55;;;;;;;24.12;51.76;100264.66;3363766;29;20041;-71
2021/07/27 02:37:52;;;;;;;27.93;8.60;;;;;;;24.13;51.76;100258.09;3363474;29;20045;-71
2021/07/27 02:39:33;;;;;;;31.93;9.83;;;;;;;24.16;51.83;100254.84;3363817;29;20051;-71
2021/07/27 02:41:34;;;;;;;20.20;8.93;;;;;;;24.18;51.69;100260.84;3363944;29;20049;-72
2021/07/27 02:43:15;;;;;;;23.98;7.97;;;;;;;24.19;51.67;100258.94;3372960;29;20040;-70
2021/07/27 02:44:56;;;;;;;21.90;8.47;;;;;;;24.22;51.71;100261.94;3369435;29;20095;-71
2021/07/27 02:46:36;;;;;;;19.17;8.93;;;;;;;24.24;51.71;100254.31;3374348;29;20481;-68
2021/07/27 02:48:17;;;;;;;26.00;9.50;;;;;;;24.27;51.82;100256.50;3375287;29;20049;-76
2021/07/27 02:49:58;;;;;;;24.77;8.27;;;;;;;24.29;52.17;100259.78;3376118;29;20044;-69
2021/07/27 02:51:38;;;;;;;20.93;8.67;;;;;;;24.30;51.64;100261.41;3376367;29;20055;-71
2021/07/27 02:53:19;;;;;;;23.57;9.20;;;;;;;24.29;51.93;100256.22;3368451;29;20044;-70
2021/07/27 02:55:00;;;;;;;17.37;8.50;;;;;;;24.32;51.65;100256.50;3371362;29;20131;-72
2021/07/27 02:56:41;;;;;;;25.63;8.70;;;;;;;24.32;51.92;100255.69;3375744;29;20045;-75
2021/07/27 02:58:21;;;;;;;28.07;8.90;;;;;;;24.36;52.03;100254.84;3376373;29;20044;-72
2021/07/27 03:00:07;;;;;;;22.37;9.97;;;;;;;24.36;52.34;100263.03;3376536;29;20044;-73
2021/07/27 03:01:48;;;;;;;22.42;8.10;;;;;;;24.40;52.19;100263.31;3376363;29;20416;-74
2021/07/27 03:03:28;;;;;;;19.77;8.37;;;;;;;24.43;52.16;100260.03;3351616;29;20045;-71
2021/07/27 03:05:10;;;;;;;29.77;8.83;;;;;;;24.45;52.10;100259.81;3369763;29;20048;-73
2021/07/27 03:06:53;;;;;;;19.75;8.60;;;;;;;24.46;51.83;100258.72;3376111;29;20045;-70
2021/07/27 03:10:36;;;;;;;14.48;8.15;;;;;;;24.47;51.98;100265.78;3334106;29;20097;-73
2021/07/27 03:12:17;;;;;;;20.77;9.00;;;;;;;24.45;51.79;100266.06;3363618;29;20124;-71
2021/07/27 03:13:57;;;;;;;23.13;9.67;;;;;;;24.45;52.39;100263.34;3363513;29;20193;-72
2021/07/27 03:15:39;;;;;;;20.53;8.93;;;;;;;24.43;51.96;100265.50;3373388;29;20041;-70
2021/07/27 03:17:20;;;;;;;26.23;8.85;;;;;;;24.42;52.08;100263.03;3362566;29;20140;-73
2021/07/27 03:19:01;;;;;;;25.13;9.17;;;;;;;24.45;52.10;100270.72;3345525;29;20520;-71
2021/07/27 03:20:42;;;;;;;20.97;9.10;;;;;;;24.47;52.38;100265.78;3370905;29;20041;-72
2021/07/27 03:22:23;;;;;;;23.67;8.73;;;;;;;24.47;52.29;100271.25;3376108;29;20052;-70
2021/07/27 03:24:04;;;;;;;22.50;9.15;;;;;;;24.51;52.26;100267.69;3362164;29;20500;-69
2021/07/27 03:25:44;;;;;;;22.03;10.20;;;;;;;24.53;51.97;100265.53;3359419;29;20048;-70
2021/07/27 03:27:26;;;;;;;19.30;8.52;;;;;;;24.54;52.38;100267.16;3373156;29;20056;-71
2021/07/27 03:29:07;;;;;;;22.43;9.20;;;;;;;24.55;52.05;100257.06;3354249;29;20179;-72
2021/07/27 03:30:49;;;;;;;17.92;8.68;;;;;;;24.62;51.79;100257.59;3360511;29;20060;-72
2021/07/27 03:32:40;;;;;;;14.25;8.23;;;;;;;24.66;51.73;100261.44;3362908;29;20135;-72
2021/07/27 03:34:21;;;;;;;29.17;9.63;;;;;;;24.69;51.97;100262.78;3374642;29;20044;-69
2021/07/27 03:36:01;;;;;;;22.53;9.00;;;;;;;24.73;51.73;100261.97;3362063;29;20131;-71
2021/07/27 03:37:42;;;;;;;23.13;9.60;;;;;;;24.75;51.27;100264.41;3373130;29;20044;-71
2021/07/27 03:39:23;;;;;;;27.70;8.67;;;;;;;24.77;51.46;100263.03;3371677;29;20064;-70
2021/07/27 03:41:05;;;;;;;14.13;7.87;;;;;;;24.79;51.49;100252.69;3369597;29;20092;-72
2021/07/27 03:42:46;;;;;;;22.38;8.35;;;;;;;24.82;51.69;100259.50;3363336;29;20077;-72
2021/07/27 03:44:27;;;;;;;16.77;8.33;;;;;;;24.86;51.18;100254.28;3375032;29;20096;-69
2021/07/27 03:46:08;;;;;;;20.70;8.20;;;;;;;24.88;51.36;100254.84;3361885;29;20131;-72
2021/07/27 03:47:48;;;;;;;17.20;8.23;;;;;;;24.90;51.20;100258.94;3372964;29;20901;-73
2021/07/27 03:49:29;;;;;;;22.83;8.73;;;;;;;24.91;51.06;100248.84;3353968;29;20049;-70
2021/07/27 03:51:13;;;;;;;15.90;8.45;;;;;;;24.95;51.09;100253.47;3360173;29;20096;-73
2021/07/27 03:52:54;;;;;;;14.23;7.68;;;;;;;24.99;51.09;100251.03;3362802;29;20049;-70
2021/07/27 03:54:35;;;;;;;17.30;8.27;;;;;;;25.03;50.96;100252.09;3375843;29;20041;-72
2021/07/27 03:56:16;;;;;;;15.80;8.30;;;;;;;25.04;51.06;100259.16;3375596;29;20064;-71
2021/07/27 03:57:56;;;;;;;25.20;8.73;;;;;;;25.08;51.01;100252.06;3361774;29;20068;-72
2021/07/27 03:59:37;;;;;;;28.47;9.93;;;;;;;25.10;50.28;100247.16;3372181;29;20051;-72
2021/07/27 04:01:18;;;;;;;18.70;8.40;;;;;;;25.12;50.63;100250.44;3375811;29;20100;-73
2021/07/27 04:03:02;;;;;;;16.40;8.47;;;;;;;25.13;50.62;100252.06;3375843;29;20051;-73
2021/07/27 04:04:43;;;;;;;20.58;9.07;;;;;;;25.15;50.63;100249.06;3375429;29;20040;-72
2021/07/27 04:06:24;;;;;;;29.80;10.03;;;;;;;25.15;50.25;100244.41;3362030;29;20084;-71
2021/07/27 04:08:05;;;;;;;21.50;9.00;;;;;;;25.19;50.09;100245.50;3372178;29;20040;-73
2021/07/27 04:09:45;;;;;;;21.13;8.57;;;;;;;25.23;50.41;100246.59;3375092;29;20096;-71
2021/07/27 04:11:26;;;;;;;25.70;9.40;;;;;;;25.26;49.97;100244.41;3361700;29;20045;-72
2021/07/27 04:13:07;;;;;;;21.30;9.30;;;;;;;25.29;50.15;100243.84;3359368;29;20048;-71
2021/07/27 04:14:48;;;;;;;26.15;9.38;;;;;;;25.33;49.87;100244.94;3359628;29;20053;-70
2021/07/27 04:16:29;;;;;;;19.93;8.97;;;;;;;25.36;50.01;100241.66;3373159;29;20423;-70
2021/07/27 04:18:10;;;;;;;37.97;11.10;;;;;;;25.41;50.05;100244.34;3360567;29;20076;-72
2021/07/27 04:19:50;;;;;;;15.80;9.13;;;;;;;25.42;49.78;100241.31;3372913;29;20048;-72
2021/07/27 04:21:31;;;;;;;24.23;9.70;;;;;;;25.46;49.82;100247.06;3375518;29;20084;-71
2021/07/27 04:23:15;;;;;;;22.10;10.10;;;;;;;25.49;49.80;100242.97;3375739;29;20048;-71
2021/07/27 04:24:55;;;;;;;23.33;9.65;;;;;;;25.52;49.67;100245.94;3375682;29;20049;-72
2021/07/27 04:26:36;;;;;;;21.70;10.13;;;;;;;25.57;49.83;100245.91;3375483;29;20048;-73
2021/07/27 04:28:17;;;;;;;24.60;9.88;;;;;;;25.54;49.26;100224.63;3365392;29;20040;-69
2021/07/27 04:29:57;;;;;;;33.47;10.83;;;;;;;25.61;49.45;100236.06;3362619;29;20076;-72
2021/07/27 04:31:41;;;;;;;30.27;9.70;;;;;;;25.63;49.10;100236.59;3363078;29;20436;-71
2021/07/27 04:33:25;;;;;;;19.85;9.38;;;;;;;25.66;48.87;100238.78;3362838;29;20505;-71
2021/07/27 04:35:10;;;;;;;22.58;8.93;;;;;;;25.67;49.22;100229.47;3362868;29;20508;-72
2021/07/27 04:36:53;;;;;;;24.95;8.60;;;;;;;25.73;48.99;100234.91;3362809;29;20072;-73
2021/07/27 04:38:34;;;;;;;17.92;8.68;;;;;;;25.77;48.87;100227.78;3363549;29;20068;-70
2021/07/27 04:40:15;;;;;;;23.83;8.67;;;;;;;25.84;49.03;100228.28;3363177;29;20517;-72
2021/07/27 04:41:56;;;;;;;29.10;9.00;;;;;;;25.88;48.66;100222.00;3362828;29;20132;-70
2021/07/27 04:43:38;;;;;;;20.83;9.17;;;;;;;25.94;48.41;100222.78;3362835;29;20572;-69
2021/07/27 04:45:19;;;;;;;26.13;9.13;;;;;;;25.97;48.45;100222.22;3360829;29;20081;-72
2021/07/27 04:47:00;;;;;;;21.23;8.00;;;;;;;26.01;47.74;100223.28;3372716;29;20044;-72
2021/07/27 04:48:41;;;;;;;20.17;7.65;;;;;;;26.07;47.89;100219.44;3359077;29;20048;-73
2021/07/27 04:50:22;;;;;;;19.63;7.80;;;;;;;26.11;47.89;100227.84;3362232;29;20053;-71
2021/07/27 04:52:03;;;;;;;23.43;8.67;;;;;;;26.17;47.55;100217.69;3362495;29;20049;-72
2021/07/27 04:53:43;;;;;;;13.38;6.90;;;;;;;26.19;47.64;100219.03;3371179;29;20055;-71
2021/07/27 04:55:25;;;;;;;17.30;7.93;;;;;;;26.22;47.42;100209.47;3375544;29;20041;-71
2021/07/27 04:57:09;;;;;;;18.75;7.18;;;;;;;26.28;46.59;100213.78;3375977;29;20048;-70
2021/07/27 04:58:50;;;;;;;26.85;5.35;;;;;;;26.27;45.80;100203.94;3375021;29;20084;-73
2021/07/27 05:00:31;;;;;;;17.23;6.17;;;;;;;26.33;45.73;100208.25;3375729;29;20135;-70
2021/07/27 05:02:11;;;;;;;12.57;5.78;;;;;;;26.37;45.49;100209.34;3375876;29;20165;-71
2021/07/27 05:03:55;;;;;;;13.55;6.82;;;;;;;26.40;45.63;100207.94;3360669;29;20552;-69
2021/07/27 05:05:36;;;;;;;9.23;5.18;;;;;;;26.46;46.12;100206.78;3360007;29;20041;-73
2021/07/27 05:07:16;;;;;;;12.50;6.50;;;;;;;26.48;45.56;100202.66;3362399;29;20461;-73
2021/07/27 05:08:57;;;;;;;14.20;5.30;;;;;;;26.56;45.04;100203.16;3362240;29;20301;-70
2021/07/27 05:10:38;;;;;;;13.10;6.40;;;;;;;26.58;45.23;100199.03;3362731;29;20096;-73
2021/07/27 05:12:18;;;;;;;14.13;5.40;;;;;;;26.63;44.85;100200.91;3362497;29;20049;-73
2021/07/27 05:13:59;;;;;;;10.80;5.57;;;;;;;26.69;45.13;100205.22;3362815;29;20132;-73
2021/07/27 05:15:40;;;;;;;13.53;5.40;;;;;;;26.72;44.47;100202.75;3374813;29;20541;-72
2021/07/27 05:17:25;;;;;;;10.63;4.60;;;;;;;26.75;44.21;100206.81;3374988;29;20053;-72
2021/07/27 05:19:05;;;;;;;19.80;5.80;;;;;;;26.80;44.25;100201.28;3375255;29;20055;-72
2021/07/27 05:20:46;;;;;;;16.90;6.30;;;;;;;26.83;44.11;100203.44;3377111;29;20040;-69
2021/07/27 05:22:27;;;;;;;15.10;5.30;;;;;;;26.89;43.82;100196.00;3377659;29;20397;-70
2021/07/27 05:24:07;;;;;;;20.73;5.23;;;;;;;26.93;43.55;100197.06;3377571;29;20095;-70
2021/07/27 05:25:48;;;;;;;8.30;5.17;;;;;;;26.96;43.02;100199.19;3376082;29;20052;-70
2021/07/27 05:27:32;;;;;;;7.83;4.50;;;;;;;27.03;42.82;100205.13;3378286;29;20052;-72
2021/07/27 05:29:13;;;;;;;13.50;5.47;;;;;;;27.06;43.07;100201.81;3364036;29;20045;-71
2021/07/27 05:30:54;;;;;;;8.55;4.95;;;;;;;27.09;42.51;100198.50;3373930;29;20055;-71
2021/07/27 05:32:35;;;;;;;18.17;4.43;;;;;;;27.15;42.60;100199.25;3377517;29;20483;-72
2021/07/27 05:34:16;;;;;;;24.43;5.27;;;;;;;27.19;42.80;100205.78;3377588;29;20041;-74
2021/07/27 05:35:56;;;;;;;20.60;4.40;;;;;;;27.25;42.70;100207.34;3374112;29;20056;-73
2021/07/27 05:37:38;;;;;;;17.00;4.93;;;;;;;27.28;42.14;100206.75;3377434;29;20044;-71
2021/07/27 05:39:19;;;;;;;6.90;4.40;;;;;;;27.35;42.11;100200.94;3377057;29;20044;-72
2021/07/27 05:40:59;;;;;;;11.03;4.27;;;;;;;27.39;42.42;100205.53;3378174;29;20066;-72
2021/07/27 05:42:40;;;;;;;14.20;4.40;;;;;;;27.45;42.24;100206.28;3373124;29;20530;-72
2021/07/27 05:44:25;;;;;;;19.00;4.47;;;;;;;27.47;40.94;100208.69;3364922;29;20056;-73
2021/07/27 05:46:06;;;;;;;7.93;4.10;;;;;;;27.51;40.81;100205.09;3375450;29;20036;-73
2021/07/27 05:47:46;;;;;;;9.23;3.87;;;;;;;27.55;40.90;100199.84;3377309;29;20085;-74
2021/07/27 05:49:28;;;;;;;12.30;3.63;;;;;;;27.60;40.86;100199.78;3377227;29;20076;-74
2021/07/27 05:51:10;;;;;;;;;;;;;;;27.69;40.98;100200.72;3378486;29;20040;-75
2021/07/27 05:52:57;;;;;;;6.63;3.38;;;;;;;27.69;39.83;100195.25;3378142;29;19998;-74
2021/07/27 05:54:41;;;;;;;6.70;3.40;;;;;;;27.73;40.65;100203.72;3377017;29;20045;-72
2021/07/27 05:56:22;;;;;;;9.15;4.30;;;;;;;27.76;40.05;100200.38;3377620;29;20056;-71
2021/07/27 05:58:03;;;;;;;8.10;3.60;;;;;;;27.75;39.51;100191.34;3376876;29;20496;-74
2021/07/27 05:59:44;;;;;;;7.80;3.23;;;;;;;27.78;39.29;100196.22;3362864;29;20544;-72
2021/07/27 06:01:24;;;;;;;7.60;3.47;;;;;;;27.82;39.46;100197.28;3355691;29;20600;-75
2021/07/27 06:03:06;;;;;;;8.20;3.60;;;;;;;27.87;38.74;100203.78;3362161;29;20135;-73
2021/07/27 06:04:47;;;;;;;11.23;4.20;;;;;;;27.87;38.45;100195.56;3366980;29;20060;-74
2021/07/27 06:06:34;;;;;;;8.30;4.45;;;;;;;27.89;39.16;100196.09;3363016;29;20067;-74
2021/07/27 06:08:15;;;;;;;12.27;4.32;;;;;;;28.00;39.42;100203.03;3361323;29;20052;-72
2021/07/27 06:09:56;;;;;;;6.10;4.00;;;;;;;28.06;39.50;100199.09;3373962;29;20044;-74
2021/07/27 06:11:37;;;;;;;7.73;3.27;;;;;;;28.10;38.71;100200.13;3375300;29;20143;-75
2021/07/27 06:13:18;;;;;;;4.13;2.80;;;;;;;28.14;37.56;100203.91;3350457;29;20077;-71
2021/07/27 06:14:58;;;;;;;5.47;2.87;;;;;;;28.17;37.43;100203.31;3361770;29;20384;-71
2021/07/27 06:16:40;;;;;;;10.03;3.33;;;;;;;28.21;37.92;100201.59;3362763;29;20139;-73
2021/07/27 06:18:21;;;;;;;9.85;3.85;;;;;;;28.27;39.37;100200.41;3373941;29;20208;-73
2021/07/27 06:20:02;;;;;;;11.77;3.70;;;;;;;28.35;39.79;100203.56;3373576;29;20535;-77
2021/07/27 06:21:44;;;;;;;12.20;4.65;;;;;;;28.42;40.57;100206.72;3355095;29;20098;-76
2021/07/27 06:23:25;;;;;;;14.57;3.53;;;;;;;28.51;39.96;100210.44;3372895;29;20040;-74
2021/07/27 06:25:10;;;;;;;12.65;3.45;;;;;;;28.60;39.52;100214.09;3378590;29;20288;-78
2021/07/27 06:26:51;;;;;;;6.35;3.13;;;;;;;28.71;38.39;100206.53;3362225;29;20063;-74
2021/07/27 06:28:32;;;;;;;14.57;3.77;;;;;;;28.78;38.27;100203.34;3381750;29;20052;-76
2021/07/27 06:30:14;;;;;;;10.20;5.82;;;;;;;28.87;38.11;100207.84;3374028;29;20103;-76
2021/07/27 06:31:55;;;;;;;16.85;3.92;;;;;;;28.95;38.08;100203.56;3371815;29;20547;-76
2021/07/27 06:33:43;;;;;;;7.97;3.73;;;;;;;29.10;38.33;100206.03;3370148;29;20045;-76
2021/07/27 06:35:23;;;;;;;8.82;3.20;;;;;;;29.22;37.65;100205.50;3372916;29;20048;-76
2021/07/27 06:37:04;;;;;;;8.90;3.80;;;;;;;29.36;37.86;100202.78;3376253;29;20067;-78
2021/07/27 06:38:45;;;;;;;14.30;4.00;;;;;;;29.47;37.49;100208.84;3375432;29;20132;-75
2021/07/27 06:40:26;;;;;;;17.30;6.50;;;;;;;29.54;36.73;100201.81;3375067;29;20809;-76
2021/07/27 06:42:08;;;;;;;10.50;3.72;;;;;;;29.64;36.48;100203.53;3365260;29;20044;-74
2021/07/27 06:43:51;;;;;;;14.35;3.20;;;;;;;29.72;36.78;100204.75;3362579;29;20144;-76
2021/07/27 06:45:32;;;;;;;11.70;4.40;;;;;;;29.80;36.38;100200.47;3362791;29;20153;-77
2021/07/27 06:47:13;;;;;;;15.93;3.27;;;;;;;29.87;35.31;100198.91;3362815;29;20033;-76
2021/07/27 06:48:55;;;;;;;12.75;3.70;;;;;;;29.96;35.61;100194.25;3365895;29;20076;-72
2021/07/27 06:50:37;;;;;;;13.80;4.20;;;;;;;30.03;35.68;100198.53;3365164;29;20048;-74
2021/07/27 06:52:22;;;;;;;12.27;3.45;;;;;;;30.11;35.93;100195.84;3350540;29;20440;-76
2021/07/27 06:54:03;;;;;;;9.73;3.53;;;;;;;30.18;35.52;100193.47;3364032;29;20073;-75
2021/07/27 06:55:49;;;;;;;14.83;4.43;;;;;;;30.22;35.44;100197.19;3362777;29;20096;-75
2021/07/27 06:57:30;;;;;;;21.20;4.43;;;;;;;30.28;35.38;100200.66;3362666;29;20080;-73
2021/07/27 06:59:11;;;;;;;10.07;3.37;;;;;;;30.29;35.12;100190.47;3362805;29;20519;-72
2021/07/27 07:00:52;;;;;;;;;;;;;;;30.47;35.34;100205.16;3362826;29;20326;-74
2021/07/27 07:02:34;;;;;;;11.07;3.53;;;;;;;30.51;34.95;100203.38;3363344;29;19927;-75
2021/07/27 07:04:17;;;;;;;7.95;3.80;;;;;;;30.57;34.26;100197.44;3348815;29;20041;-76
2021/07/27 07:05:59;;;;;;;10.63;3.38;;;;;;;30.67;34.41;100190.00;3360743;29;20045;-75
2021/07/27 07:07:40;;;;;;;8.90;3.83;;;;;;;30.75;34.44;100187.31;3365190;29;20068;-75
2021/07/27 07:09:24;;;;;;;9.70;3.63;;;;;;;30.79;34.88;100191.03;3350159;29;20057;-74
2021/07/27 07:11:06;;;;;;;10.02;3.42;;;;;;;30.85;34.26;100192.56;3359840;29;20037;-75
2021/07/27 07:12:46;;;;;;;13.00;4.22;;;;;;;30.92;35.26;100191.28;3348673;29;20634;-75
2021/07/27 07:14:28;;;;;;;11.37;3.20;;;;;;;30.98;35.52;100196.34;3359774;29;20070;-75
2021/07/27 07:16:10;;;;;;;10.75;4.13;;;;;;;31.04;35.22;100189.53;3362460;29;20105;-75
2021/07/27 07:17:54;;;;;;;5.82;3.30;;;;;;;31.14;34.64;100188.44;3362579;29;20052;-75
2021/07/27 07:19:35;;;;;;;6.03;3.10;;;;;;;31.19;33.91;100182.78;3362322;29;20036;-76
2021/07/27 07:21:16;;;;;;;9.27;3.17;;;;;;;31.22;33.40;100182.13;3348546;29;20045;-75
2021/07/27 07:22:56;;;;;;;3.35;2.33;;;;;;;31.26;34.17;100185.88;3359996;29;20104;-75
2021/07/27 07:24:37;;;;;;;10.60;3.77;;;;;;;31.27;35.28;100182.00;3364517;29;20075;-75
2021/07/27 07:26:18;;;;;;;13.50;3.10;;;;;;;31.35;35.48;100182.34;3375230;29;20594;-76
2021/07/27 07:27:59;;;;;;;;;;;;;;;31.47;35.55;100186.09;3375354;29;20646;-75
2021/07/27 07:29:40;;;;;;;13.15;3.53;;;;;;;31.45;35.54;100188.38;3374237;29;19930;-74
2021/07/27 07:31:21;;;;;;;11.50;4.00;;;;;;;31.46;35.37;100189.97;3371814;29;20124;-74
2021/07/27 07:33:02;;;;;;;7.87;3.43;;;;;;;31.50;35.36;100190.16;3373639;29;20404;-72
2021/07/27 07:34:42;;;;;;;9.80;3.17;;;;;;;31.57;35.05;100189.66;3375444;29;20053;-72
2021/07/27 07:36:23;;;;;;;11.07;3.23;;;;;;;31.56;35.04;100183.34;3375442;29;20308;-75
2021/07/27 07:38:04;;;;;;;19.27;3.50;;;;;;;31.67;34.74;100186.59;3375517;29;20040;-75
2021/07/27 07:39:44;;;;;;;16.23;3.43;;;;;;;31.71;34.03;100187.56;3375161;29;20324;-72
2021/07/27 07:41:27;;;;;;;14.57;3.28;;;;;;;31.67;33.88;100189.34;3375788;29;20801;-72
2021/07/27 07:43:08;;;;;;;10.50;3.47;;;;;;;31.68;33.88;100183.53;3375281;29;20523;-71
2021/07/27 07:44:49;;;;;;;9.38;3.33;;;;;;;31.77;33.87;100178.00;3374674;29;20045;-70
2021/07/27 07:46:29;;;;;;;6.30;2.95;;;;;;;31.84;33.43;100172.00;3361089;29;20037;-72
2021/07/27 07:48:10;;;;;;;9.02;2.90;;;;;;;31.95;33.46;100184.34;3359206;29;20545;-73
2021/07/27 07:49:51;;;;;;;5.87;3.43;;;;;;;32.07;33.09;100178.97;3372622;29;20040;-72
2021/07/27 07:51:35;;;;;;;10.37;3.20;;;;;;;32.19;32.26;100183.81;3375704;29;20344;-69
2021/07/27 07:53:16;;;;;;;8.07;3.05;;;;;;;32.30;32.32;100178.78;3375521;29;20044;-72
2021/07/27 07:54:57;;;;;;;6.23;3.17;;;;;;;32.40;32.46;100183.94;3375341;29;20115;-72
2021/07/27 07:56:37;;;;;;;13.50;3.47;;;;;;;32.49;32.30;100175.66;3375580;29;20492;-72
2021/07/27 07:58:18;;;;;;;6.95;2.85;;;;;;;32.56;32.50;100179.53;3375630;29;20360;-70
2021/07/27 08:00:00;;;;;;;10.43;3.53;;;;;;;32.64;31.74;100182.59;3375268;29;21318;-70
2021/07/27 08:01:45;;;;;;;7.43;3.15;;;;;;;32.76;31.32;100177.16;3361732;29;20864;-74
2021/07/27 08:03:26;;;;;;;6.75;3.13;;;;;;;32.98;30.97;100179.66;3374907;29;20048;-76
2021/07/27 08:05:10;;;;;;;7.63;2.92;;;;;;;33.19;30.51;100170.63;3375417;29;20136;-76
2021/07/27 08:06:52;;;;;;;4.43;3.05;;;;;;;33.43;30.00;100169.97;3362309;29;20041;-78
2021/07/27 08:08:32;;;;;;;6.63;3.22;;;;;;;33.69;28.90;100172.56;3368383;29;20048;-79
2021/07/27 08:10:14;;;;;;;5.80;2.60;;;;;;;33.91;28.29;100173.34;3373074;29;20051;-78